CDT,Max TemperatureF,Mean TemperatureF,Min TemperatureF,Max Dew PointF,MeanDew PointF,Min DewpointF,Max Humidity, Mean Humidity, Min Humidity, Max Sea Level PressureIn, Mean Sea Level PressureIn, Min Sea Level PressureIn, Max VisibilityMiles, Mean VisibilityMiles, Min VisibilityMiles, Max Wind SpeedMPH, Mean Wind SpeedMPH, Max Gust SpeedMPH,PrecipitationIn, CloudCover, Events, WindDirDegrees
2012-10-1,82,70,57,61,55,46,97,64,30,29.95,29.88,29.83,10,8,3,21,11,25,0.00,2,,339
2012-10-2,77,67,56,54,48,42,78,55,32,30.02,29.95,29.90,10,10,10,16,7,20,0.00,2,,327
2012-10-3,82,68,53,55,52,50,87,62,37,29.95,29.91,29.86,10,10,10,21,10,28,0.00,0,,169
2012-10-4,77,70,62,66,57,50,88,70,56,30.13,30.05,29.94,10,10,10,25,11,31,0.00,6,,92
2012-10-5,65,58,50,52,49,43,75,66,53,30.17,30.12,30.08,10,10,10,25,14,30,0.00,8,,23
2012-10-6,50,49,47,41,35,31,71,58,45,30.32,30.23,30.17,10,10,10,24,15,29,0.00,8,,39
2012-10-7,53,48,43,35,32,27,74,55,30,30.35,30.29,30.22,10,10,10,16,5,20,0.00,6,,32
2012-10-8,65,51,36,42,36,31,90,62,34,30.25,30.15,30.01,10,10,10,17,7,20,0.00,0,,174
2012-10-9,83,65,47,57,51,42,92,64,36,30.00,29.90,29.80,10,10,7,23,11,29,0.00,1,,177
2012-10-10,64,61,57,54,51,48,77,70,63,30.18,30.11,29.98,10,10,10,20,10,25,0.00,6,,60
2012-10-11,81,71,61,70,64,55,87,77,67,30.15,30.09,29.99,10,7,2,15,9,,0.00,6,,153
2012-10-12,86,77,68,70,68,64,100,78,55,30.14,30.05,29.99,10,10,7,20,12,25,0.00,3,,165
2012-10-13,80,73,65,73,67,45,90,68,45,30.02,29.85,29.70,10,9,2,23,15,26,0.39,4,Rain-Thunderstorm,180
2012-10-14,81,69,57,50,46,42,67,47,26,30.10,30.01,29.82,10,10,7,22,9,28,0.00,0,,321
2012-10-15,81,67,53,56,50,47,83,57,30,30.10,30.02,29.92,10,10,10,16,7,21,0.00,1,,206
2012-10-16,82,71,59,60,55,50,73,58,43,29.90,29.71,29.54,10,10,10,24,14,30,0.00,2,,180
2012-10-17,83,68,53,62,49,36,87,54,21,29.82,29.60,29.44,10,10,10,26,16,33,0.00,0,,314
2012-10-18,72,59,45,35,29,21,60,38,15,30.04,29.96,29.84,10,10,10,23,8,29,0.00,0,,335
2012-10-19,78,62,46,40,29,18,59,36,12,30.04,29.95,29.84,10,10,10,16,9,21,0.00,0,,259
2012-10-20,88,70,52,63,51,38,73,55,36,29.84,29.73,29.63,10,10,10,21,13,26,0.00,0,,179
2012-10-21,92,80,67,68,66,64,93,67,41,29.79,29.71,29.67,10,9,6,28,16,33,0.00,0,,182
2012-10-22,78,71,64,67,64,61,93,77,60,30.01,29.86,29.75,10,10,9,25,14,29,0.12,4,Rain-Thunderstorm,183
2012-10-23,86,76,66,70,67,64,100,78,55,29.91,29.83,29.78,10,10,8,24,15,31,0.00,2,,186
2012-10-24,84,75,66,68,66,61,100,78,55,29.91,29.80,29.68,10,10,6,26,15,35,0.00,3,,171
2012-10-25,73,59,44,63,49,37,87,65,43,30.20,29.93,29.68,10,10,10,31,17,36,0.00,3,,4
2012-10-26,54,45,35,37,30,24,79,57,35,30.41,30.33,30.20,10,10,10,30,17,35,0.00,1,,8
2012-10-27,56,43,29,29,25,20,85,55,24,30.40,30.31,30.21,10,10,10,12,7,14,0.00,0,,5
2012-10-28,61,46,31,32,28,25,85,58,30,30.32,30.26,30.19,10,10,2,10,4,12,0.00,0,,46
2012-10-29,68,51,34,34,31,29,76,51,26,30.30,30.20,30.10,10,10,10,13,5,18,0.00,1,,155
2012-10-30,78,58,37,44,38,32,79,53,26,30.09,30.00,29.91,10,10,10,16,7,20,0.00,0,,206
2012-10-31,79,62,44,45,42,40,86,58,29,30.06,29.99,29.91,10,10,9,16,4,20,0.00,0,,338